Time;durP1;ratioP1;P1;durP2;ratioP2;P2;SDS_P1;SDS_P2;PMS_P1;PMS_P2;Temp;Humidity;BMP_temperature;BMP_pressure;BME280_temperature;BME280_humidity;BME280_pressure;Samples;Min_cycle;Max_cycle;Signal;HPM_P1;HPM_P2
2024/03/09 00:01:03;;;;;;;23.40;22.40;;;21.10;50.10;;;;;;4955556;28;20520;-62
2024/03/09 00:03:31;;;;;;;25.20;24.10;;;21.10;50.10;;;;;;4959289;28;20465;-63
2024/03/09 00:05:58;;;;;;;23.87;22.77;;;21.10;50.10;;;;;;4955433;28;20500;-63
2024/03/09 00:08:25;;;;;;;24.30;23.10;;;21.00;50.00;;;;;;4955507;28;20453;-63
2024/03/09 00:10:52;;;;;;;23.80;22.80;;;21.10;50.10;;;;;;4955387;28;20503;-62
2024/03/09 00:13:20;;;;;;;24.67;23.63;;;21.00;50.10;;;;;;4958795;28;20472;-62
2024/03/09 00:15:46;;;;;;;22.63;21.73;;;21.00;50.00;;;;;;4955344;28;20448;-63
2024/03/09 00:18:14;;;;;;;23.47;22.47;;;21.00;50.10;;;;;;4955399;28;20448;-62
2024/03/09 00:20:42;;;;;;;23.87;22.73;;;21.00;50.10;;;;;;4954988;28;20834;-63
2024/03/09 00:23:09;;;;;;;22.83;21.83;;;21.00;50.10;;;;;;4958331;28;20476;-63
2024/03/09 00:25:37;;;;;;;24.00;22.80;;;21.00;50.10;;;;;;4954569;28;20826;-62
2024/03/09 00:28:04;;;;;;;23.70;22.60;;;21.00;50.10;;;;;;4955104;28;20548;-63
2024/03/09 00:30:31;;;;;;;23.83;22.73;;;21.00;50.10;;;;;;4955038;28;20455;-63
2024/03/09 00:33:00;;;;;;;23.00;22.10;;;21.00;50.20;;;;;;4958241;28;20491;-62
2024/03/09 00:35:29;;;;;;;24.30;23.10;;;20.90;50.10;;;;;;4959310;28;20467;-63
2024/03/09 00:37:57;;;;;;;24.03;22.73;;;20.90;50.10;;;;;;4954943;28;20625;-63
2024/03/09 00:40:28;;;;;;;22.83;21.80;;;20.90;50.10;;;;;;4954926;28;20459;-63
2024/03/09 00:42:56;;;;;;;23.50;22.40;;;20.90;50.20;;;;;;4957910;28;20491;-62
2024/03/09 00:45:23;;;;;;;23.63;22.60;;;20.90;50.10;;;;;;4955013;28;20473;-63
2024/03/09 00:47:50;;;;;;;23.13;22.13;;;20.90;50.20;;;;;;4954586;28;20485;-63
2024/03/09 00:50:17;;;;;;;29.03;27.83;;;20.90;50.20;;;;;;4954664;28;20812;-63
2024/03/09 00:52:46;;;;;;;27.30;26.10;;;20.90;50.10;;;;;;4957229;28;20823;-63
2024/03/09 00:55:14;;;;;;;28.40;27.10;;;20.90;50.10;;;;;;4954920;28;20445;-63
2024/03/09 00:57:42;;;;;;;27.77;26.67;;;20.90;50.20;;;;;;4954764;28;20484;-63
2024/03/09 01:00:11;;;;;;;23.20;22.10;;;20.80;50.10;;;;;;4954626;28;20452;-63
2024/03/09 01:02:38;;;;;;;22.97;21.97;;;20.80;50.10;;;;;;4956530;28;20785;-63
2024/03/09 01:05:06;;;;;;;22.23;21.33;;;20.80;50.20;;;;;;4954672;28;20444;-62
2024/03/09 01:07:34;;;;;;;22.07;21.17;;;20.80;50.20;;;;;;4954562;28;20500;-63
2024/03/09 01:10:02;;;;;;;22.97;21.97;;;20.80;50.20;;;;;;4954288;28;20480;-63
2024/03/09 01:12:30;;;;;;;23.00;22.03;;;20.80;50.20;;;;;;4955837;28;20483;-63
2024/03/09 01:14:58;;;;;;;22.80;21.80;;;20.80;50.30;;;;;;4954772;28;20922;-63
2024/03/09 01:17:26;;;;;;;22.93;21.93;;;20.80;50.30;;;;;;4954286;28;20437;-62
2024/03/09 01:19:53;;;;;;;23.20;22.20;;;20.80;50.20;;;;;;4954301;28;20512;-63
2024/03/09 01:22:21;;;;;;;24.10;23.00;;;20.80;50.20;;;;;;4954181;28;20457;-63
2024/03/09 01:24:49;;;;;;;23.03;21.93;;;20.80;50.30;;;;;;4955402;28;20476;-63
2024/03/09 01:27:18;;;;;;;22.60;21.70;;;20.70;50.20;;;;;;4954181;28;20519;-63
2024/03/09 01:29:47;;;;;;;22.80;21.70;;;20.80;50.20;;;;;;4954131;28;20942;-63
2024/03/09 01:32:13;;;;;;;22.37;21.27;;;20.70;50.20;;;;;;4954266;28;20500;-63
2024/03/09 01:34:41;;;;;;;22.73;21.73;;;20.70;50.20;;;;;;4955538;28;20830;-63
2024/03/09 01:37:10;;;;;;;22.50;21.60;;;20.70;50.30;;;;;;4953129;28;20449;-63
2024/03/09 01:39:37;;;;;;;22.80;21.80;;;20.70;50.30;;;;;;4954113;28;20456;-63
2024/03/09 01:42:05;;;;;;;22.20;21.30;;;20.70;50.30;;;;;;4953940;28;20445;-63
2024/03/09 01:44:34;;;;;;;23.40;22.40;;;20.70;50.30;;;;;;4955081;28;20982;-63
2024/03/09 01:47:06;;;;;;;22.70;21.80;;;20.70;50.30;;;;;;4953634;28;20491;-63
2024/03/09 01:49:35;;;;;;;23.30;22.20;;;20.70;50.30;;;;;;4953892;28;20452;-62
2024/03/09 01:52:04;;;;;;;21.63;20.73;;;20.70;50.30;;;;;;4960631;28;20445;-63
2024/03/09 01:54:34;;;;;;;22.40;21.50;;;20.60;50.30;;;;;;4953421;28;20548;-63
2024/03/09 01:57:02;;;;;;;22.23;21.23;;;20.70;50.30;;;;;;4953751;28;20520;-63
2024/03/09 01:59:30;;;;;;;23.27;22.27;;;20.70;50.30;;;;;;4953914;28;20941;-63
2024/03/09 02:02:01;;;;;;;22.43;21.50;;;20.60;50.30;;;;;;4960463;28;20451;-63
2024/03/09 02:04:29;;;;;;;23.30;22.30;;;20.60;50.30;;;;;;4953512;28;20492;-63
2024/03/09 02:06:56;;;;;;;22.77;21.77;;;20.60;50.30;;;;;;4953530;28;20539;-63
2024/03/09 02:09:25;;;;;;;22.50;21.57;;;20.60;50.40;;;;;;4953639;28;20795;-63
2024/03/09 02:11:52;;;;;;;22.37;21.37;;;20.60;50.40;;;;;;4960135;28;20447;-63
2024/03/09 02:14:19;;;;;;;23.03;22.03;;;20.60;50.40;;;;;;4953108;28;20464;-63
2024/03/09 02:16:47;;;;;;;22.60;21.60;;;20.60;50.40;;;;;;4953274;28;20475;-63
2024/03/09 02:19:15;;;;;;;21.80;20.80;;;20.60;50.30;;;;;;4956476;28;21018;-63
2024/03/09 02:21:45;;;;;;;23.30;22.23;;;20.60;50.40;;;;;;4953476;28;20461;-63
2024/03/09 02:24:17;;;;;;;22.63;21.73;;;20.60;50.40;;;;;;4986161;23;20581;-66
2024/03/09 02:26:45;;;;;;;23.10;22.03;;;20.60;50.40;;;;;;4974925;28;20478;-66
2024/03/09 02:29:14;;;;;;;23.17;22.17;;;20.60;50.40;;;;;;4980692;28;20453;-66
2024/03/09 02:31:41;;;;;;;22.93;21.93;;;20.50;50.30;;;;;;4980578;28;20491;-66
2024/03/09 02:34:07;;;;;;;23.20;22.20;;;20.50;50.30;;;;;;4982859;28;20482;-66
2024/03/09 02:36:38;;;;;;;23.60;22.40;;;20.50;50.30;;;;;;4983374;28;20443;-66
2024/03/09 02:39:07;;;;;;;22.77;21.77;;;20.50;50.30;;;;;;4980530;28;20437;-66
2024/03/09 02:41:34;;;;;;;23.90;22.90;;;20.50;50.40;;;;;;4980591;28;20476;-66
2024/03/09 02:44:02;;;;;;;23.47;22.47;;;20.50;50.40;;;;;;4982109;28;20487;-66
2024/03/09 02:46:29;;;;;;;22.73;21.73;;;20.50;50.40;;;;;;4983575;28;20451;-66
2024/03/09 02:48:56;;;;;;;23.27;22.27;;;20.50;50.40;;;;;;4984048;28;20447;-66
2024/03/09 02:51:25;;;;;;;22.20;21.27;;;20.50;50.30;;;;;;4984356;28;20813;-66
2024/03/09 02:53:52;;;;;;;22.63;21.67;;;20.50;50.40;;;;;;4984408;28;20475;-66
2024/03/09 02:56:20;;;;;;;22.90;21.80;;;20.50;50.40;;;;;;4987433;28;20447;-66
2024/03/09 02:58:47;;;;;;;23.87;22.83;;;20.50;50.40;;;;;;4986739;28;20470;-66
2024/03/09 03:01:16;;;;;;;23.37;22.37;;;20.50;50.40;;;;;;4984344;28;20443;-66
2024/03/09 03:03:46;;;;;;;22.60;21.70;;;20.40;50.30;;;;;;4983064;28;20495;-66
2024/03/09 03:06:15;;;;;;;23.20;22.20;;;20.40;50.30;;;;;;4987285;28;20443;-66
2024/03/09 03:08:42;;;;;;;23.67;22.57;;;20.50;50.30;;;;;;4987170;28;20478;-66
2024/03/09 03:11:09;;;;;;;23.10;22.10;;;20.40;50.30;;;;;;4976220;28;20812;-66
2024/03/09 03:13:36;;;;;;;23.10;22.00;;;20.40;50.20;;;;;;4982882;28;20470;-66
2024/03/09 03:16:02;;;;;;;22.90;21.90;;;20.40;50.30;;;;;;4986395;28;20440;-66
2024/03/09 03:18:30;;;;;;;24.60;23.60;;;20.40;50.30;;;;;;4987040;28;20781;-66
2024/03/09 03:20:57;;;;;;;24.00;22.90;;;20.40;50.30;;;;;;4985164;28;20443;-66
2024/03/09 03:23:24;;;;;;;23.47;22.47;;;20.40;50.30;;;;;;4982663;28;20519;-66
2024/03/09 03:25:50;;;;;;;23.50;22.40;;;20.40;50.30;;;;;;4984478;28;21127;-66
2024/03/09 03:28:17;;;;;;;23.07;21.97;;;20.40;50.30;;;;;;4986883;28;20493;-66
2024/03/09 03:30:45;;;;;;;24.20;23.00;;;20.40;50.30;;;;;;4986872;28;20439;-66
2024/03/09 03:33:11;;;;;;;23.10;22.00;;;20.40;50.30;;;;;;4978389;28;20882;-66
2024/03/09 03:35:39;;;;;;;23.67;22.57;;;20.40;50.40;;;;;;4977760;28;20447;-66
2024/03/09 03:38:06;;;;;;;23.47;22.47;;;20.40;50.40;;;;;;4983803;28;20447;-66
2024/03/09 03:40:33;;;;;;;23.70;22.70;;;20.40;50.30;;;;;;4983354;28;20554;-66
2024/03/09 03:43:02;;;;;;;23.10;22.20;;;20.40;50.30;;;;;;4989851;28;20447;-66
2024/03/09 03:45:28;;;;;;;24.47;23.37;;;20.40;50.30;;;;;;4983342;28;20450;-66
2024/03/09 03:47:55;;;;;;;23.50;22.40;;;20.40;50.30;;;;;;4984651;28;20492;-66
2024/03/09 03:50:23;;;;;;;22.70;21.70;;;20.40;50.80;;;;;;4986443;28;20199;-66
2024/03/09 03:52:51;;;;;;;23.90;22.77;;;20.40;50.30;;;;;;4977599;28;20448;-66
2024/03/09 03:55:17;;;;;;;23.30;22.30;;;20.40;50.30;;;;;;4986339;28;20485;-66
2024/03/09 03:57:44;;;;;;;22.67;21.67;;;20.40;50.30;;;;;;4986557;28;20439;-66
2024/03/09 04:00:13;;;;;;;23.40;22.30;;;20.40;50.30;;;;;;4973557;28;20447;-66
2024/03/09 04:02:41;;;;;;;22.17;21.33;;;20.30;50.20;;;;;;4982522;28;20510;-66
2024/03/09 04:05:09;;;;;;;23.00;22.10;;;20.40;50.30;;;;;;4986059;28;20475;-66
2024/03/09 04:07:36;;;;;;;23.53;22.33;;;20.40;50.30;;;;;;4986030;28;20483;-66
2024/03/09 04:10:12;;;;;;;23.27;22.27;;;20.30;50.10;;;;;;4983623;28;20540;-66
2024/03/09 04:12:40;;;;;;;24.73;23.63;;;20.30;50.10;;;;;;4978165;28;20443;-66
2024/03/09 04:15:08;;;;;;;24.10;22.90;;;20.30;50.10;;;;;;4985474;28;20459;-66
2024/03/09 04:17:34;;;;;;;23.33;22.33;;;20.30;50.10;;;;;;4986106;28;20501;-66
2024/03/09 04:20:03;;;;;;;23.70;22.70;;;20.30;50.10;;;;;;4983734;28;20439;-66
2024/03/09 04:22:29;;;;;;;23.70;22.67;;;20.30;50.10;;;;;;4981712;28;20448;-66
2024/03/09 04:24:56;;;;;;;24.57;23.47;;;20.30;50.20;;;;;;4983698;28;20470;-66
2024/03/09 04:27:25;;;;;;;23.60;22.50;;;20.30;50.10;;;;;;4986003;28;20478;-66
2024/03/09 04:29:53;;;;;;;22.87;21.90;;;20.30;50.20;;;;;;4984833;28;20447;-66
2024/03/09 04:32:20;;;;;;;24.33;23.23;;;20.30;50.20;;;;;;4981933;28;20479;-66
2024/03/09 04:34:46;;;;;;;23.80;22.80;;;20.30;50.10;;;;;;4982032;28;20471;-66
2024/03/09 04:37:21;;;;;;;23.57;22.47;;;20.30;50.10;;;;;;4974646;28;20443;-66
2024/03/09 04:39:49;;;;;;;24.47;23.40;;;20.30;50.10;;;;;;4982330;28;20514;-66
2024/03/09 04:42:16;;;;;;;23.17;22.07;;;20.30;50.20;;;;;;4980485;28;20467;-66
2024/03/09 04:44:44;;;;;;;22.60;21.70;;;20.30;50.20;;;;;;4981061;28;20467;-66
2024/03/09 04:47:10;;;;;;;23.60;22.60;;;20.30;50.20;;;;;;4984944;28;20443;-66
2024/03/09 04:49:37;;;;;;;23.73;22.73;;;20.30;50.20;;;;;;4985445;28;20443;-66
2024/03/09 04:52:05;;;;;;;23.27;22.27;;;20.30;50.20;;;;;;4982530;28;20447;-66
2024/03/09 04:54:32;;;;;;;23.87;22.77;;;20.20;50.10;;;;;;4981477;28;20464;-66
2024/03/09 04:56:58;;;;;;;23.93;22.93;;;20.30;50.20;;;;;;4983208;28;20451;-66
2024/03/09 04:59:26;;;;;;;24.13;23.03;;;20.30;50.20;;;;;;4985225;28;20432;-66
2024/03/09 05:01:54;;;;;;;24.50;23.40;;;20.30;50.20;;;;;;4983671;28;20458;-66
2024/03/09 05:04:21;;;;;;;24.10;23.00;;;20.30;50.30;;;;;;4981361;28;20981;-66
2024/03/09 05:06:48;;;;;;;24.10;23.00;;;20.30;50.30;;;;;;4981726;28;20448;-66
2024/03/09 05:09:16;;;;;;;24.33;23.27;;;20.30;50.30;;;;;;4984443;28;20573;-66
2024/03/09 05:11:43;;;;;;;24.40;23.40;;;20.30;50.30;;;;;;4984762;28;20447;-66
2024/03/09 05:14:10;;;;;;;30.33;29.03;;;20.30;50.30;;;;;;4981424;28;20470;-66
2024/03/09 05:16:37;;;;;;;24.53;23.43;;;20.30;50.30;;;;;;4981476;28;20455;-66
2024/03/09 05:19:06;;;;;;;26.07;24.87;;;20.30;50.40;;;;;;4982997;28;20939;-66
2024/03/09 05:21:34;;;;;;;25.30;24.10;;;20.30;50.40;;;;;;4984822;28;20502;-66
2024/03/09 05:24:00;;;;;;;24.67;23.57;;;20.30;50.40;;;;;;4982608;28;20477;-66
2024/03/09 05:26:32;;;;;;;25.60;24.50;;;20.30;50.40;;;;;;4981624;28;20471;-66
2024/03/09 05:28:58;;;;;;;25.40;24.20;;;20.30;50.40;;;;;;4981838;28;20483;-66
2024/03/09 05:31:26;;;;;;;26.27;25.07;;;20.30;50.40;;;;;;4984640;28;20447;-66
2024/03/09 05:33:53;;;;;;;24.83;23.73;;;20.30;50.40;;;;;;4983595;28;20482;-66
2024/03/09 05:36:21;;;;;;;25.27;24.10;;;20.30;50.40;;;;;;4981325;28;20934;-66
2024/03/09 05:38:49;;;;;;;26.27;25.17;;;20.30;50.40;;;;;;4980668;28;20451;-66
2024/03/09 05:41:16;;;;;;;24.53;23.43;;;20.30;50.40;;;;;;4973492;28;20491;-66
2024/03/09 05:43:44;;;;;;;24.93;23.93;;;20.30;50.40;;;;;;4980736;28;20888;-66
2024/03/09 05:46:14;;;;;;;26.73;25.43;;;20.30;50.40;;;;;;4983911;28;20443;-66
2024/03/09 05:48:42;;;;;;;24.20;23.10;;;20.30;50.40;;;;;;4984323;28;20486;-66
2024/03/09 05:51:09;;;;;;;24.90;23.80;;;20.30;50.40;;;;;;4983335;28;20447;-66
2024/03/09 05:53:38;;;;;;;24.87;23.87;;;20.30;50.40;;;;;;4983968;28;20497;-66
2024/03/09 05:56:05;;;;;;;29.50;27.80;;;20.30;50.40;;;;;;4982289;28;20447;-66
2024/03/09 05:58:32;;;;;;;25.50;24.40;;;20.30;50.50;;;;;;4980862;28;20447;-65
2024/03/09 06:00:59;;;;;;;25.83;24.73;;;20.30;50.50;;;;;;4981498;28;20910;-66
2024/03/09 06:03:26;;;;;;;24.97;23.77;;;20.30;50.50;;;;;;4983790;28;20459;-66
2024/03/09 06:05:53;;;;;;;25.30;24.10;;;20.30;50.50;;;;;;4983767;28;20439;-66
2024/03/09 06:08:21;;;;;;;24.33;23.33;;;20.30;50.50;;;;;;4980736;28;20483;-66
2024/03/09 06:10:49;;;;;;;24.63;23.53;;;20.30;50.50;;;;;;4979658;28;20451;-66
2024/03/09 06:13:17;;;;;;;24.37;23.27;;;20.30;50.50;;;;;;4983753;28;20510;-66
2024/03/09 06:15:45;;;;;;;24.80;23.70;;;20.30;50.50;;;;;;4984019;28;20442;-66
2024/03/09 06:18:12;;;;;;;24.80;23.80;;;20.30;50.50;;;;;;4981196;28;20937;-65
2024/03/09 06:20:41;;;;;;;25.67;24.63;;;20.30;50.50;;;;;;4978364;28;20443;-66
2024/03/09 06:23:08;;;;;;;25.10;24.10;;;20.30;50.50;;;;;;4982755;28;20823;-66
2024/03/09 06:25:34;;;;;;;26.47;25.30;;;20.40;50.60;;;;;;4984844;28;20440;-66
2024/03/09 06:28:05;;;;;;;25.67;24.60;;;20.30;50.60;;;;;;4985620;28;20901;-66
2024/03/09 06:30:32;;;;;;;26.23;25.03;;;20.40;50.70;;;;;;4979986;28;20450;-64
2024/03/09 06:33:00;;;;;;;25.00;23.90;;;20.40;50.80;;;;;;4986417;28;20439;-67
2024/03/09 06:35:27;;;;;;;26.07;24.77;;;20.40;50.90;;;;;;4984605;28;20442;-65
2024/03/09 06:37:58;;;;;;;23.15;22.10;;;20.40;51.00;;;;;;4983467;28;20449;-63
2024/03/09 06:40:25;;;;;;;22.40;21.40;;;20.40;51.00;;;;;;4986773;28;20491;-64
2024/03/09 06:42:59;;;;;;;24.97;23.90;;;20.50;50.90;;;;;;4987621;28;20207;-65
2024/03/09 06:45:27;;;;;;;25.20;24.00;;;20.60;50.50;;;;;;4977555;28;20440;-64
2024/03/09 06:47:54;;;;;;;25.73;24.47;;;20.70;50.50;;;;;;4984316;28;20522;-67
2024/03/09 06:50:20;;;;;;;24.93;23.93;;;20.70;50.50;;;;;;4986963;28;20446;-64
2024/03/09 06:52:47;;;;;;;25.13;24.03;;;20.60;50.50;;;;;;4987258;28;20442;-66
2024/03/09 06:55:14;;;;;;;25.10;24.00;;;20.60;50.60;;;;;;4984652;28;20456;-67
2024/03/09 06:57:41;;;;;;;24.60;23.60;;;20.60;50.70;;;;;;4983520;28;20452;-64
2024/03/09 07:00:13;;;;;;;25.80;24.70;;;20.60;50.70;;;;;;4985884;28;20450;-65
2024/03/09 07:02:42;;;;;;;26.20;25.10;;;20.60;50.70;;;;;;4987009;28;20450;-65
2024/03/09 07:05:10;;;;;;;25.50;24.30;;;20.60;50.80;;;;;;4985014;28;20462;-66
2024/03/09 07:07:38;;;;;;;23.63;22.52;;;20.60;50.70;;;;;;4978770;28;20448;-67
2024/03/09 07:10:07;;;;;;;26.60;25.43;;;20.60;51.00;;;;;;4985310;28;20220;-66
2024/03/09 07:12:39;;;;;;;25.03;23.83;;;20.70;50.70;;;;;;4987092;28;20784;-67
2024/03/09 07:15:08;;;;;;;25.20;24.20;;;20.80;50.50;;;;;;4985764;28;20462;-66
2024/03/09 07:17:35;;;;;;;26.40;25.30;;;20.80;50.40;;;;;;4983505;28;20955;-67
2024/03/09 07:20:10;;;;;;;25.43;24.33;;;20.80;50.40;;;;;;4985095;28;20444;-67
2024/03/09 07:22:39;;;;;;;27.53;26.20;;;20.80;50.30;;;;;;4986916;28;20449;-67
2024/03/09 07:25:07;;;;;;;28.20;26.67;;;20.80;48.60;;;;;;4985105;28;20474;-68
2024/03/09 07:27:35;;;;;;;27.80;26.10;;;20.70;47.50;;;;;;4983159;28;20814;-68
2024/03/09 07:30:04;;;;;;;28.27;26.77;;;20.70;47.40;;;;;;4984450;28;20511;-68
2024/03/09 07:32:31;;;;;;;28.77;27.30;;;20.70;46.80;;;;;;4981796;28;20455;-64
2024/03/09 07:34:58;;;;;;;28.40;26.90;;;20.60;46.00;;;;;;4983509;28;20467;-67
2024/03/09 07:37:26;;;;;;;30.83;29.03;;;20.70;45.50;;;;;;4989178;28;20439;-68
2024/03/09 07:39:53;;;;;;;29.40;27.73;;;20.60;45.10;;;;;;4983259;28;20448;-63
2024/03/09 07:42:20;;;;;;;30.53;28.73;;;20.60;44.80;;;;;;4983219;28;20499;-62
2024/03/09 07:44:47;;;;;;;28.77;27.27;;;20.60;44.50;;;;;;4981766;28;20976;-61
2024/03/09 07:47:14;;;;;;;29.87;28.20;;;20.50;44.20;;;;;;4975462;28;20448;-61
2024/03/09 07:49:41;;;;;;;30.20;28.60;;;20.50;43.80;;;;;;4975048;28;20483;-63
2024/03/09 07:52:09;;;;;;;27.70;26.10;;;20.50;43.70;;;;;;4975249;28;20960;-62
2024/03/09 07:54:39;;;;;;;30.87;29.17;;;20.50;43.50;;;;;;4974507;28;20463;-62
2024/03/09 07:57:08;;;;;;;29.37;27.67;;;20.40;43.20;;;;;;4965444;28;20476;-65
2024/03/09 07:59:35;;;;;;;31.63;29.87;;;20.40;43.20;;;;;;4955877;28;20459;-66
2024/03/09 08:02:02;;;;;;;29.90;28.20;;;20.50;43.20;;;;;;4956113;28;20476;-64
2024/03/09 08:04:29;;;;;;;31.33;29.20;;;20.50;43.00;;;;;;4955361;28;20840;-65
2024/03/09 08:06:57;;;;;;;28.73;27.23;;;20.50;43.00;;;;;;4963413;28;20439;-66
2024/03/09 08:09:24;;;;;;;29.70;27.90;;;20.50;42.90;;;;;;4962454;28;20480;-65
2024/03/09 08:11:52;;;;;;;29.57;27.87;;;20.50;42.80;;;;;;4973649;28;20452;-64
2024/03/09 08:14:19;;;;;;;30.40;28.60;;;20.50;42.70;;;;;;4974155;28;20464;-64
2024/03/09 08:16:46;;;;;;;30.13;28.60;;;20.50;42.80;;;;;;4968196;28;20826;-65
2024/03/09 08:19:13;;;;;;;32.43;30.73;;;20.50;42.50;;;;;;4956674;28;20988;-64
2024/03/09 08:21:40;;;;;;;30.53;28.83;;;20.50;42.20;;;;;;4956335;28;20441;-64
2024/03/09 08:24:07;;;;;;;29.97;28.27;;;20.40;41.90;;;;;;4988497;23;21021;-61
2024/03/09 08:26:34;;;;;;;30.73;29.17;;;20.40;41.80;;;;;;4981946;28;20440;-61
2024/03/09 08:29:02;;;;;;;30.90;29.30;;;20.40;41.70;;;;;;4974265;28;20483;-60
2024/03/09 08:31:28;;;;;;;29.60;28.03;;;20.40;41.90;;;;;;4974277;28;20440;-65
2024/03/09 08:33:55;;;;;;;28.67;26.97;;;20.40;41.90;;;;;;4974914;28;20471;-62
2024/03/09 08:36:23;;;;;;;29.00;27.30;;;20.40;41.90;;;;;;4974167;28;20968;-62
2024/03/09 08:38:52;;;;;;;29.00;27.53;;;20.40;41.90;;;;;;4974528;28;20534;-65
2024/03/09 08:41:21;;;;;;;28.73;27.30;;;20.40;41.60;;;;;;4974040;28;20467;-58
2024/03/09 08:43:47;;;;;;;29.13;27.53;;;20.40;41.70;;;;;;4974509;28;20476;-58
2024/03/09 08:46:17;;;;;;;28.67;27.00;;;20.40;41.70;;;;;;4975140;28;20439;-59
2024/03/09 08:48:44;;;;;;;28.73;27.07;;;20.40;42.10;;;;;;4979452;28;20483;-61
2024/03/09 08:51:11;;;;;;;27.60;26.20;;;20.40;41.50;;;;;;4974157;28;20502;-61
2024/03/09 08:53:38;;;;;;;28.60;27.20;;;20.40;42.10;;;;;;4973443;28;20970;-59
2024/03/09 08:56:05;;;;;;;29.40;27.67;;;20.40;41.70;;;;;;4973942;28;20451;-60
2024/03/09 08:58:34;;;;;;;27.70;25.95;;;20.40;41.50;;;;;;4973059;28;20816;-61
2024/03/09 09:01:01;;;;;;;29.10;27.50;;;20.30;40.70;;;;;;4973927;28;20687;-60
2024/03/09 09:03:29;;;;;;;27.83;26.53;;;20.30;40.60;;;;;;4973625;28;20448;-61
2024/03/09 09:05:56;;;;;;;27.97;26.50;;;20.40;41.20;;;;;;4978560;28;20440;-60
2024/03/09 09:08:25;;;;;;;28.00;26.50;;;20.40;41.90;;;;;;4973864;28;20527;-61
2024/03/09 09:10:53;;;;;;;28.00;26.30;;;20.50;42.40;;;;;;4974074;28;20498;-58
2024/03/09 09:13:21;;;;;;;27.20;25.90;;;20.50;42.70;;;;;;4973109;28;20941;-56
2024/03/09 09:15:48;;;;;;;29.53;28.03;;;20.50;43.00;;;;;;4973747;28;20452;-61
2024/03/09 09:18:15;;;;;;;26.93;25.80;;;20.50;43.10;;;;;;4973407;28;20960;-59
2024/03/09 09:20:45;;;;;;;29.17;27.67;;;20.50;43.30;;;;;;4973829;28;21025;-62
2024/03/09 09:23:12;;;;;;;27.80;26.10;;;20.50;43.40;;;;;;4973086;28;21033;-62
2024/03/09 09:25:39;;;;;;;27.50;25.90;;;20.50;43.60;;;;;;4975736;28;20538;-62
2024/03/09 09:28:08;;;;;;;27.83;26.43;;;20.50;43.70;;;;;;4973131;28;20499;-62
2024/03/09 09:30:35;;;;;;;27.20;26.00;;;20.50;43.80;;;;;;4973084;28;20479;-62
2024/03/09 09:33:01;;;;;;;27.30;26.00;;;20.50;44.00;;;;;;4972729;28;20459;-60
2024/03/09 09:35:28;;;;;;;27.93;26.53;;;20.50;44.10;;;;;;4978466;28;20463;-62
2024/03/09 09:37:57;;;;;;;26.63;25.43;;;20.50;44.30;;;;;;4973358;28;20960;-60
2024/03/09 09:40:25;;;;;;;28.53;27.27;;;20.50;44.30;;;;;;4973138;28;20440;-61
2024/03/09 09:42:52;;;;;;;27.00;25.70;;;20.50;44.40;;;;;;4973019;28;20811;-61
2024/03/09 09:45:22;;;;;;;25.70;24.60;;;20.50;44.50;;;;;;4978550;28;20838;-61
2024/03/09 09:47:50;;;;;;;26.50;25.20;;;20.50;44.60;;;;;;4972885;28;20443;-62
2024/03/09 09:50:18;;;;;;;26.40;25.10;;;20.50;44.80;;;;;;4972798;28;20876;-61
2024/03/09 09:52:47;;;;;;;26.50;25.20;;;20.50;44.90;;;;;;4972594;28;20941;-60
2024/03/09 09:55:19;;;;;;;27.70;26.50;;;20.60;45.00;;;;;;4972969;28;20875;-62
2024/03/09 09:57:46;;;;;;;26.40;25.20;;;20.50;45.00;;;;;;4972103;28;20456;-61
2024/03/09 10:00:14;;;;;;;25.20;24.00;;;20.60;45.10;;;;;;4972879;28;20471;-63
2024/03/09 10:02:41;;;;;;;26.87;25.53;;;20.50;45.20;;;;;;4972718;28;20451;-59
2024/03/09 10:05:14;;;;;;;27.27;25.77;;;20.60;45.30;;;;;;4973845;28;20506;-60
2024/03/09 10:07:58;;;;;;;26.00;24.80;;;20.60;45.40;;;;;;4972793;28;20865;-63
2024/03/09 10:10:30;;;;;;;24.80;23.60;;;20.60;45.40;;;;;;4972557;28;20475;-61
2024/03/09 10:13:08;;;;;;;25.37;24.27;;;20.60;45.50;;;;;;4972454;28;20452;-61
2024/03/09 10:15:35;;;;;;;26.80;25.60;;;20.60;45.60;;;;;;4975835;28;20832;-61
2024/03/09 10:18:02;;;;;;;25.07;23.90;;;20.60;45.80;;;;;;4972873;28;20809;-62
2024/03/09 10:20:32;;;;;;;27.00;25.60;;;20.60;45.80;;;;;;4972532;28;20848;-62
2024/03/09 10:23:01;;;;;;;25.57;24.40;;;20.60;46.00;;;;;;4972572;28;20510;-62
2024/03/09 10:25:30;;;;;;;25.73;24.43;;;20.60;46.00;;;;;;4972299;28;20464;-63
2024/03/09 10:27:59;;;;;;;25.20;24.00;;;20.60;46.10;;;;;;4972933;28;20446;-62
2024/03/09 10:30:26;;;;;;;25.43;24.27;;;20.60;46.20;;;;;;4972457;28;20216;-63
2024/03/09 10:32:53;;;;;;;25.97;24.67;;;20.60;46.30;;;;;;4972293;28;20936;-62
2024/03/09 10:35:20;;;;;;;25.67;24.57;;;20.70;46.40;;;;;;4973288;28;20459;-62
2024/03/09 10:37:55;;;;;;;25.70;24.50;;;20.60;46.30;;;;;;4972464;28;20929;-61
2024/03/09 10:40:23;;;;;;;26.83;25.53;;;20.60;46.40;;;;;;4972355;28;20531;-60
2024/03/09 10:42:52;;;;;;;25.17;23.97;;;20.60;46.50;;;;;;4972107;28;20527;-61
2024/03/09 10:45:20;;;;;;;26.73;25.43;;;20.60;46.50;;;;;;4972498;28;20467;-60
2024/03/09 10:47:52;;;;;;;25.10;23.90;;;20.70;46.70;;;;;;4972414;28;20452;-61
2024/03/09 10:50:25;;;;;;;26.70;25.30;;;20.70;46.70;;;;;;4972082;28;20938;-61
2024/03/09 10:53:10;;;;;;;27.83;26.20;;;20.70;46.90;;;;;;4972092;28;20447;-61
2024/03/09 10:55:44;;;;;;;26.17;25.07;;;20.80;47.40;;;;;;4965226;28;20499;-60
2024/03/09 10:58:15;;;;;;;27.97;26.07;;;20.80;48.00;;;;;;4973715;28;20910;-61
2024/03/09 11:00:42;;;;;;;27.60;26.17;;;20.80;48.50;;;;;;4972223;28;20927;-61
2024/03/09 11:03:11;;;;;;;29.70;27.38;;;20.80;49.00;;;;;;4971591;28;20448;-60
2024/03/09 11:05:38;;;;;;;29.13;27.63;;;20.80;48.80;;;;;;4977606;28;20224;-60
2024/03/09 11:08:09;;;;;;;28.30;26.60;;;20.90;49.00;;;;;;4972218;28;20443;-61
2024/03/09 11:10:40;;;;;;;29.77;28.20;;;20.90;49.00;;;;;;4968057;28;20582;-61
2024/03/09 11:13:07;;;;;;;28.87;27.07;;;20.90;50.10;;;;;;4975389;28;20479;-59
2024/03/09 11:15:38;;;;;;;28.23;26.83;;;20.90;50.80;;;;;;4980921;28;20468;-61
2024/03/09 11:18:07;;;;;;;28.40;26.77;;;20.90;51.20;;;;;;4975960;28;20455;-62
2024/03/09 11:20:36;;;;;;;27.97;26.47;;;20.90;51.60;;;;;;4967927;28;20452;-59
2024/03/09 11:23:03;;;;;;;28.47;26.67;;;20.90;51.70;;;;;;4975250;28;20827;-61
2024/03/09 11:25:45;;;;;;;27.10;25.57;;;20.90;51.30;;;;;;4975231;28;20470;-59
2024/03/09 11:28:12;;;;;;;25.83;24.73;;;20.90;51.30;;;;;;4976623;28;20804;-60
2024/03/09 11:30:59;;;;;;;27.50;25.80;;;20.90;51.80;;;;;;4978551;28;20510;-62
2024/03/09 11:33:30;;;;;;;27.80;26.10;;;20.90;53.10;;;;;;4974523;28;20527;-64
2024/03/09 11:35:58;;;;;;;27.07;25.77;;;20.90;54.10;;;;;;4975338;28;20447;-53
2024/03/09 11:38:30;;;;;;;26.35;24.58;;;20.90;54.20;;;;;;4975056;28;20434;-56
2024/03/09 11:40:57;;;;;;;27.10;25.70;;;20.90;53.60;;;;;;4975193;28;20208;-59
2024/03/09 11:43:23;;;;;;;25.97;24.67;;;21.00;53.30;;;;;;4974644;28;20448;-57
2024/03/09 11:45:52;;;;;;;26.73;25.40;;;21.10;52.90;;;;;;4975340;28;20436;-62
2024/03/09 11:48:21;;;;;;;25.77;24.07;;;21.10;52.80;;;;;;4974800;28;20444;-60
2024/03/09 11:50:48;;;;;;;26.13;24.63;;;21.20;53.00;;;;;;4975221;28;20484;-57
2024/03/09 11:53:16;;;;;;;27.27;25.67;;;21.20;53.40;;;;;;4974752;28;20448;-57
2024/03/09 11:55:42;;;;;;;27.47;25.87;;;21.20;52.70;;;;;;4975153;28;20470;-59
2024/03/09 11:58:09;;;;;;;27.80;26.30;;;21.20;53.10;;;;;;4974953;28;20452;-55
2024/03/09 12:00:36;;;;;;;28.27;26.57;;;21.10;53.50;;;;;;4975278;28;20443;-58
2024/03/09 12:03:17;;;;;;;27.23;25.40;;;21.10;53.40;;;;;;4974976;28;20471;-56
2024/03/09 12:05:44;;;;;;;28.20;26.33;;;21.10;53.60;;;;;;4968242;28;20490;-59
2024/03/09 12:08:11;;;;;;;25.87;24.57;;;21.10;53.40;;;;;;4974763;28;20448;-59
2024/03/09 12:10:39;;;;;;;26.47;25.07;;;21.20;53.30;;;;;;4974895;28;20478;-58
2024/03/09 12:13:06;;;;;;;27.53;25.77;;;21.20;53.00;;;;;;4974565;28;20451;-59
2024/03/09 12:15:34;;;;;;;29.93;27.50;;;21.20;53.20;;;;;;4974641;28;20484;-56
2024/03/09 12:18:03;;;;;;;29.60;26.80;;;21.20;54.10;;;;;;4974782;28;20443;-59
2024/03/09 12:20:33;;;;;;;29.80;26.57;;;21.30;55.50;;;;;;4973552;28;20491;-60
2024/03/09 12:22:59;;;;;;;27.23;25.77;;;21.30;56.40;;;;;;4974454;28;20455;-59
2024/03/09 12:25:26;;;;;;;28.60;26.67;;;21.40;56.20;;;;;;4974196;28;20471;-60
2024/03/09 12:27:53;;;;;;;27.40;25.43;;;21.40;55.60;;;;;;4974572;28;20452;-59
2024/03/09 12:30:23;;;;;;;27.90;26.20;;;21.40;55.20;;;;;;4974299;28;20856;-60
2024/03/09 12:32:51;;;;;;;26.77;24.97;;;21.50;55.00;;;;;;4973907;28;20474;-60